createdAt,value
2023-01-03T00:02:10.777Z,-3.61
2023-01-03T00:04:37.494Z,-3.66
2023-01-03T00:07:04.228Z,-3.68
2023-01-03T00:09:30.889Z,-3.71
2023-01-03T00:12:15.871Z,-3.58
2023-01-03T00:14:43.513Z,-3.63
2023-01-03T00:17:11.054Z,-3.83
2023-01-03T00:19:40.618Z,-3.91
2023-01-03T00:22:07.214Z,-3.99
2023-01-03T00:24:33.818Z,-4.00
2023-01-03T00:27:00.316Z,-4.07
2023-01-03T00:29:26.947Z,-4.15
2023-01-03T00:31:54.176Z,-4.15
2023-01-03T00:34:20.704Z,-4.03
2023-01-03T00:36:47.198Z,-3.94
2023-01-03T00:39:13.932Z,-4.09
2023-01-03T00:41:40.539Z,-4.18
2023-01-03T00:44:07.287Z,-4.25
2023-01-03T00:46:34.164Z,-4.28
2023-01-03T00:49:01.209Z,-4.28
2023-01-03T00:51:30.073Z,-4.38
2023-01-03T00:53:57.644Z,-4.38
2023-01-03T00:56:27.014Z,-4.41
2023-01-03T00:58:53.879Z,-4.38
2023-01-03T01:01:22.774Z,-4.44
2023-01-03T01:03:52.555Z,-4.42
2023-01-03T01:06:20.976Z,-4.27
2023-01-03T01:08:48.497Z,-4.27
2023-01-03T01:11:15.415Z,-4.40
2023-01-03T01:13:42.549Z,-4.46
2023-01-03T01:16:13.510Z,-4.50
2023-01-03T01:18:44.245Z,-4.60
2023-01-03T01:21:12.942Z,-4.62
2023-01-03T01:23:40.176Z,-4.60
2023-01-03T01:26:07.317Z,-4.64
2023-01-03T01:28:34.098Z,-4.70
2023-01-03T01:31:04.408Z,-4.72
2023-01-03T01:33:32.265Z,-4.77
2023-01-03T01:35:59.175Z,-4.64
2023-01-03T01:38:25.666Z,-4.54
2023-01-03T01:40:52.114Z,-4.65
2023-01-03T01:43:40.606Z,-4.73
2023-01-03T01:46:33.520Z,-4.75
2023-01-03T01:49:02.760Z,-4.73
2023-01-03T01:51:30.865Z,-4.75
2023-01-03T01:54:00.529Z,-4.75
2023-01-03T01:56:30.111Z,-4.76
2023-01-03T01:58:57.124Z,-4.75
2023-01-03T02:01:24.490Z,-4.76
2023-01-03T02:03:55.521Z,-4.80
2023-01-03T02:06:22.947Z,-4.87
2023-01-03T02:08:49.666Z,-4.92
2023-01-03T02:11:34.776Z,-4.96
2023-01-03T02:14:13.569Z,-5.01
2023-01-03T02:16:50.753Z,-5.07
2023-01-03T02:19:23.474Z,-5.17
2023-01-03T02:21:49.995Z,-5.29
2023-01-03T02:24:32.760Z,-5.32
2023-01-03T02:27:20.144Z,-5.38
2023-01-03T02:29:56.860Z,-5.43
2023-01-03T02:32:33.689Z,-5.48
2023-01-03T02:35:00.209Z,-5.50
2023-01-03T02:37:46.628Z,-5.54
2023-01-03T02:40:14.956Z,-5.55
2023-01-03T02:43:07.739Z,-5.54
2023-01-03T02:45:37.055Z,-5.61
2023-01-03T02:48:29.976Z,-5.62
2023-01-03T02:50:58.146Z,-5.70
2023-01-03T02:53:30.800Z,-5.73
2023-01-03T02:56:00.620Z,-5.81
2023-01-03T02:58:29.955Z,-5.88
2023-01-03T03:01:01.936Z,-5.97
2023-01-03T03:03:38.453Z,-6.05
2023-01-03T03:06:04.938Z,-6.08
2023-01-03T03:08:31.454Z,-6.11
2023-01-03T03:11:16.566Z,-6.15
2023-01-03T03:13:51.300Z,-6.20
2023-01-03T03:16:40.996Z,-6.23
2023-01-03T03:19:54.295Z,-6.26
2023-01-03T03:22:59.459Z,-6.30
2023-01-03T03:25:30.598Z,-6.36
2023-01-03T03:28:19.982Z,-6.36
2023-01-03T03:30:49.174Z,-6.45
2023-01-03T03:33:17.905Z,-6.50
2023-01-03T03:36:06.704Z,-6.54
2023-01-03T03:38:41.097Z,-6.54
2023-01-03T03:41:35.491Z,-6.58
2023-01-03T03:44:40.622Z,-6.65
2023-01-03T03:47:12.360Z,-6.65
2023-01-03T03:49:40.657Z,-6.63
2023-01-03T03:52:09.658Z,-6.63
2023-01-03T03:54:37.880Z,-6.66
2023-01-03T03:57:08.167Z,-6.75
2023-01-03T03:59:35.282Z,-6.74
2023-01-03T04:02:03.845Z,-6.70
2023-01-03T04:04:33.079Z,-6.75
2023-01-03T04:06:59.823Z,-6.75
2023-01-03T04:09:26.346Z,-6.83
2023-01-03T04:11:52.856Z,-6.88
2023-01-03T04:14:19.333Z,-6.90
2023-01-03T04:16:45.849Z,-6.91
2023-01-03T04:19:12.539Z,-6.93
2023-01-03T04:21:38.995Z,-6.95
2023-01-03T04:24:05.797Z,-6.91
2023-01-03T04:26:32.261Z,-6.92
2023-01-03T04:29:00.713Z,-7.00
2023-01-03T04:31:28.203Z,-7.08
2023-01-03T04:33:55.478Z,-7.11
2023-01-03T04:36:21.964Z,-7.19
2023-01-03T04:38:48.484Z,-7.19
2023-01-03T04:41:17.056Z,-7.20
2023-01-03T04:44:03.823Z,-7.24
2023-01-03T04:46:30.317Z,-7.23
2023-01-03T04:48:57.138Z,-7.19
2023-01-03T04:51:23.631Z,-7.23
2023-01-03T04:53:50.635Z,-7.19
2023-01-03T04:56:17.258Z,-7.18
2023-01-03T04:58:46.196Z,-7.21
2023-01-03T05:01:12.752Z,-7.19
2023-01-03T05:03:39.309Z,-7.11
2023-01-03T05:06:09.193Z,-7.07
2023-01-03T05:08:35.725Z,-7.06
2023-01-03T05:11:04.900Z,-7.14
2023-01-03T05:13:32.287Z,-7.21
2023-01-03T05:16:03.778Z,-7.26
2023-01-03T05:18:30.765Z,-7.27
2023-01-03T05:21:16.016Z,-7.34
2023-01-03T05:24:00.932Z,-7.37
2023-01-03T05:26:27.424Z,-7.33
2023-01-03T05:28:54.647Z,-7.35
2023-01-03T05:31:22.106Z,-7.43
2023-01-03T05:33:48.711Z,-7.42
2023-01-03T05:36:16.626Z,-7.53
2023-01-03T05:38:43.319Z,-7.55
2023-01-03T05:41:10.175Z,-7.75
2023-01-03T05:43:36.678Z,-7.85
2023-01-03T05:46:03.225Z,-7.95
2023-01-03T05:48:29.812Z,-7.99
2023-01-03T05:50:57.482Z,-8.09
2023-01-03T05:53:24.337Z,-7.95
2023-01-03T05:55:50.906Z,-7.86
2023-01-03T05:58:19.361Z,-7.86
2023-01-03T06:00:45.863Z,-7.98
2023-01-03T06:03:15.015Z,-7.94
2023-01-03T06:05:49.894Z,-7.94
2023-01-03T06:08:16.970Z,-7.83
2023-01-03T06:10:43.457Z,-7.83
2023-01-03T06:13:10.090Z,-7.93
2023-01-03T06:15:36.524Z,-7.97
2023-01-03T06:18:03.008Z,-7.95
2023-01-03T06:20:31.809Z,-7.97
2023-01-03T06:22:58.578Z,-8.03
2023-01-03T06:25:25.535Z,-7.98
2023-01-03T06:27:54.513Z,-7.84
2023-01-03T06:30:21.597Z,-7.80
2023-01-03T06:32:50.810Z,-7.79
2023-01-03T06:35:17.277Z,-7.75
2023-01-03T06:37:43.806Z,-7.67
2023-01-03T06:40:10.533Z,-7.59
2023-01-03T06:42:39.718Z,-7.59
2023-01-03T06:45:25.321Z,-7.57
2023-01-03T06:48:10.441Z,-7.61
2023-01-03T06:50:57.467Z,-7.59
2023-01-03T06:53:24.192Z,-7.55
2023-01-03T06:55:56.673Z,-7.59
2023-01-03T06:58:24.054Z,-7.68
2023-01-03T07:00:50.794Z,-7.71
2023-01-03T07:03:17.261Z,-7.76
2023-01-03T07:05:43.788Z,-7.68
2023-01-03T07:08:10.288Z,-7.50
2023-01-03T07:10:38.791Z,-7.37
2023-01-03T07:13:23.796Z,-7.22
2023-01-03T07:15:50.717Z,-7.08
2023-01-03T07:18:17.193Z,-7.01
2023-01-03T07:20:44.388Z,-6.93
2023-01-03T07:23:11.385Z,-6.89
2023-01-03T07:25:41.952Z,-6.76
2023-01-03T07:28:11.158Z,-6.71
2023-01-03T07:30:42.892Z,-6.67
2023-01-03T07:33:10.908Z,-6.75
2023-01-03T07:35:37.791Z,-6.76
2023-01-03T07:38:05.491Z,-6.84
2023-01-03T07:40:32.557Z,-6.93
2023-01-03T07:43:17.847Z,-7.02
2023-01-03T07:45:45.009Z,-7.04
2023-01-03T07:48:11.690Z,-7.13
2023-01-03T07:50:38.748Z,-7.22
2023-01-03T07:53:06.055Z,-7.19
2023-01-03T07:55:35.321Z,-7.20
2023-01-03T07:58:02.210Z,-7.17
2023-01-03T08:00:28.763Z,-7.17
2023-01-03T08:02:55.944Z,-7.21
2023-01-03T08:05:23.103Z,-7.23
2023-01-03T08:07:49.951Z,-7.29
2023-01-03T08:10:37.823Z,-7.31
2023-01-03T08:13:19.350Z,-7.34
2023-01-03T08:15:49.192Z,-7.38
2023-01-03T08:18:25.733Z,-7.37
2023-01-03T08:20:55.094Z,-7.38
2023-01-03T08:23:22.040Z,-7.40
2023-01-03T08:25:48.586Z,-7.43
2023-01-03T08:28:15.101Z,-7.40
2023-01-03T08:30:50.598Z,-7.38
2023-01-03T08:33:18.579Z,-7.33
2023-01-03T08:35:47.744Z,-7.35
2023-01-03T08:38:20.921Z,-7.42
2023-01-03T08:40:47.957Z,-7.45
2023-01-03T08:43:15.775Z,-7.38
2023-01-03T08:45:44.429Z,-7.37
2023-01-03T08:48:11.573Z,-7.36
2023-01-03T08:50:38.571Z,-7.31
2023-01-03T08:53:06.002Z,-7.27
2023-01-03T08:55:33.405Z,-7.24
2023-01-03T08:58:02.403Z,-7.18
2023-01-03T09:00:30.884Z,-7.09
2023-01-03T09:02:57.910Z,-7.03
2023-01-03T09:05:24.533Z,-7.04
2023-01-03T09:07:51.015Z,-7.09
2023-01-03T09:10:17.524Z,-7.02
2023-01-03T09:12:43.963Z,-6.96
2023-01-03T09:15:12.937Z,-6.91
2023-01-03T09:17:44.251Z,-6.86
2023-01-03T09:20:14.935Z,-6.98
2023-01-03T09:22:41.422Z,-7.10
2023-01-03T09:25:08.202Z,-7.08
2023-01-03T09:27:34.688Z,-7.12
2023-01-03T09:30:01.172Z,-7.12
2023-01-03T09:32:28.397Z,-7.04
2023-01-03T09:34:55.651Z,-6.88
2023-01-03T09:37:24.480Z,-6.78
2023-01-03T09:39:50.942Z,-6.82
2023-01-03T09:42:37.806Z,-6.85
2023-01-03T09:45:05.376Z,-6.76
2023-01-03T09:47:35.213Z,-6.92
2023-01-03T09:53:07.304Z,-7.69
2023-01-03T09:56:02.186Z,-7.90
2023-01-03T09:58:47.374Z,-7.62
2023-01-03T10:01:40.300Z,-7.50
2023-01-03T10:04:25.831Z,-7.35
2023-01-03T10:07:02.742Z,-7.13
2023-01-03T10:09:50.720Z,-6.86
2023-01-03T10:12:28.411Z,-6.85
2023-01-03T10:15:07.441Z,-6.69
2023-01-03T10:17:48.480Z,-6.59
2023-01-03T10:20:37.381Z,-6.68
2023-01-03T10:23:05.547Z,-6.96
2023-01-03T10:25:32.283Z,-6.74
2023-01-03T10:28:06.730Z,-6.60
2023-01-03T10:30:33.183Z,-6.44
2023-01-03T10:33:19.233Z,-6.35
2023-01-03T10:35:45.729Z,-6.30
2023-01-03T10:38:14.887Z,-6.27
2023-01-03T10:40:52.706Z,-6.10
2023-01-03T10:43:25.866Z,-6.03
2023-01-03T10:45:55.847Z,-6.00
2023-01-03T10:48:23.149Z,-6.04
2023-01-03T10:50:50.829Z,-6.12
2023-01-03T10:53:20.408Z,-6.00
2023-01-03T10:55:48.798Z,-5.92
2023-01-03T10:58:29.232Z,-5.88
2023-01-03T11:01:31.456Z,-5.90
2023-01-03T11:04:09.500Z,-5.89
2023-01-03T11:06:36.006Z,-5.78
2023-01-03T11:09:04.290Z,-5.69
2023-01-03T11:11:33.081Z,-5.68
2023-01-03T11:14:06.054Z,-5.68
2023-01-03T11:16:32.839Z,-5.67
2023-01-03T11:19:02.970Z,-5.61
2023-01-03T11:21:33.437Z,-5.47
2023-01-03T11:24:14.925Z,-5.48
2023-01-03T11:26:59.983Z,-5.57
2023-01-03T11:29:26.454Z,-5.56
2023-01-03T11:31:59.331Z,-5.58
2023-01-03T11:35:20.048Z,-5.57
2023-01-03T11:37:33.501Z,-5.39
2023-01-03T11:40:06.022Z,-5.42
2023-01-03T11:42:32.493Z,-5.51
2023-01-03T11:44:59.034Z,-5.50
2023-01-03T11:47:38.545Z,-5.41
2023-01-03T11:50:24.883Z,-5.42
2023-01-03T11:52:57.552Z,-5.45
2023-01-03T11:55:23.976Z,-5.52
2023-01-03T11:58:03.247Z,-5.59
2023-01-03T12:00:29.679Z,-5.59
2023-01-03T12:03:02.439Z,-5.60
2023-01-03T12:05:34.889Z,-5.78
2023-01-03T12:08:08.572Z,-5.92
2023-01-03T12:10:47.420Z,-6.07
2023-01-03T12:13:16.110Z,-5.94
2023-01-03T12:15:48.044Z,-5.80
2023-01-03T12:18:19.865Z,-5.70
2023-01-03T12:20:51.618Z,-5.69
2023-01-03T12:23:27.786Z,-5.71
2023-01-03T12:25:57.312Z,-5.75
2023-01-03T12:28:28.118Z,-5.79
2023-01-03T12:31:05.500Z,-5.72
2023-01-03T12:33:43.149Z,-5.69
2023-01-03T12:36:28.000Z,-5.79
2023-01-03T12:39:12.136Z,-5.79
2023-01-03T12:41:42.237Z,-5.82
2023-01-03T12:44:20.473Z,-5.83
2023-01-03T12:46:52.494Z,-5.99
2023-01-03T12:49:38.553Z,-5.99
2023-01-03T12:52:05.034Z,-5.87
2023-01-03T12:54:37.384Z,-5.82
2023-01-03T12:57:16.302Z,-5.96
2023-01-03T12:59:42.727Z,-5.96
2023-01-03T13:02:17.214Z,-5.94
2023-01-03T13:04:44.563Z,-6.02
2023-01-03T13:07:14.550Z,-5.96
2023-01-03T13:09:44.049Z,-5.83
2023-01-03T13:12:15.652Z,-5.99
2023-01-03T13:15:07.246Z,-6.09
2023-01-03T13:17:46.619Z,-6.03
2023-01-03T13:20:25.364Z,-6.02
2023-01-03T13:22:55.711Z,-6.04
2023-01-03T13:25:28.484Z,-6.17
2023-01-03T13:28:21.390Z,-6.10
2023-01-03T13:30:48.624Z,-6.07
2023-01-03T13:33:20.753Z,-6.17
2023-01-03T13:35:47.178Z,-6.16
2023-01-03T13:38:20.987Z,-6.24
2023-01-03T13:41:17.023Z,-6.27
2023-01-03T13:43:40.372Z,-6.10
2023-01-03T13:46:27.769Z,-6.11
2023-01-03T13:48:58.389Z,-6.24
2023-01-03T13:51:30.901Z,-6.28
2023-01-03T13:54:02.315Z,-6.32
2023-01-03T13:56:54.628Z,-6.38
2023-01-03T13:59:27.190Z,-6.34
2023-01-03T14:01:53.716Z,-6.49
2023-01-03T14:04:32.792Z,-6.62
2023-01-03T14:07:18.193Z,-6.58
2023-01-03T14:09:56.985Z,-6.49
2023-01-03T14:12:26.421Z,-6.52
2023-01-03T14:14:57.257Z,-6.41
2023-01-03T14:17:30.901Z,-6.44
2023-01-03T14:19:59.949Z,-6.38
2023-01-03T14:22:34.945Z,-6.38
2023-01-03T14:25:01.532Z,-6.32
2023-01-03T14:27:33.620Z,-6.27
2023-01-03T14:30:00.428Z,-6.38
2023-01-03T14:32:34.497Z,-6.63
2023-01-03T14:35:01.378Z,-6.74
2023-01-03T14:37:28.176Z,-6.75
2023-01-03T14:39:56.419Z,-6.68
2023-01-03T14:42:23.338Z,-6.96
2023-01-03T14:44:50.976Z,-7.19
2023-01-03T14:47:18.256Z,-7.15
2023-01-03T14:49:49.894Z,-6.99
2023-01-03T14:52:19.399Z,-7.90
2023-01-03T14:54:47.252Z,-8.50
2023-01-03T14:57:21.546Z,-8.36
2023-01-03T14:59:48.717Z,-8.25
2023-01-03T15:02:15.765Z,-8.21
2023-01-03T15:04:43.717Z,-8.53
2023-01-03T15:07:28.659Z,-8.99
2023-01-03T15:10:16.396Z,-9.01
2023-01-03T15:12:45.877Z,-8.57
2023-01-03T15:15:27.550Z,-8.49
2023-01-03T15:17:56.908Z,-8.59
2023-01-03T15:20:30.989Z,-8.57
2023-01-03T15:22:57.561Z,-8.72
2023-01-03T15:25:42.286Z,-8.84
2023-01-03T15:28:29.956Z,-8.70
2023-01-03T15:31:01.271Z,-8.50
2023-01-03T15:33:33.122Z,-8.31
2023-01-03T15:36:11.929Z,-8.68
2023-01-03T15:38:45.070Z,-9.27
2023-01-03T15:41:39.797Z,-9.89
2023-01-03T15:44:07.044Z,-10.00
2023-01-03T15:46:33.652Z,-9.72
2023-01-03T15:49:00.996Z,-9.52
2023-01-03T15:51:27.518Z,-9.38
2023-01-03T15:53:54.002Z,-9.37
2023-01-03T15:56:23.676Z,-9.14
2023-01-03T15:58:51.880Z,-8.97
2023-01-03T16:01:19.566Z,-8.70
2023-01-03T16:03:46.994Z,-8.59
2023-01-03T16:06:13.468Z,-8.55
2023-01-03T16:08:40.342Z,-8.66
2023-01-03T16:11:15.619Z,-9.01
2023-01-03T16:13:49.396Z,-8.89
2023-01-03T16:16:19.393Z,-9.15
2023-01-03T16:18:46.247Z,-9.08
2023-01-03T16:21:13.629Z,-9.03
2023-01-03T16:23:40.223Z,-8.59
2023-01-03T16:26:07.730Z,-8.42
2023-01-03T16:28:35.425Z,-8.38
2023-01-03T16:31:16.532Z,-8.95
2023-01-03T16:33:43.431Z,-8.80
2023-01-03T16:36:22.044Z,-8.59
2023-01-03T16:38:48.522Z,-8.55
2023-01-03T16:41:14.964Z,-8.55
2023-01-03T16:43:41.400Z,-8.41
2023-01-03T16:46:10.744Z,-8.69
2023-01-03T16:48:39.101Z,-9.23
2023-01-03T16:51:06.277Z,-8.94
2023-01-03T16:53:35.572Z,-8.95
2023-01-03T16:56:02.329Z,-9.18
2023-01-03T16:58:29.111Z,-9.46
2023-01-03T17:00:55.769Z,-9.05
2023-01-03T17:03:22.380Z,-9.34
2023-01-03T17:05:50.640Z,-9.73
2023-01-03T17:08:20.226Z,-9.22
2023-01-03T17:10:47.695Z,-9.35
2023-01-03T17:13:34.208Z,-9.47
2023-01-03T17:16:02.055Z,-9.45
2023-01-03T17:18:30.037Z,-9.18
2023-01-03T17:21:00.835Z,-9.21
2023-01-03T17:23:28.240Z,-9.26
2023-01-03T17:25:55.301Z,-9.30
2023-01-03T17:28:22.330Z,-9.25
2023-01-03T17:30:51.570Z,-9.32
2023-01-03T17:33:18.400Z,-9.32
2023-01-03T17:35:45.713Z,-9.38
2023-01-03T17:38:25.895Z,-9.30
2023-01-03T17:40:55.331Z,-9.25
2023-01-03T17:43:25.051Z,-9.31
2023-01-03T17:46:20.627Z,-9.29
2023-01-03T17:49:09.596Z,-9.16
2023-01-03T17:51:38.085Z,-9.12
2023-01-03T17:54:06.596Z,-9.12
2023-01-03T17:56:33.247Z,-9.04
2023-01-03T17:58:59.796Z,-9.01
2023-01-03T18:01:26.348Z,-9.13
2023-01-03T18:03:53.035Z,-9.28
2023-01-03T18:06:21.394Z,-9.38
2023-01-03T18:08:48.551Z,-9.51
2023-01-03T18:11:16.772Z,-9.57
2023-01-03T18:13:43.930Z,-9.56
2023-01-03T18:16:21.045Z,-9.59
2023-01-03T18:18:48.021Z,-9.75
2023-01-03T18:21:18.942Z,-9.49
2023-01-03T18:23:46.054Z,-9.48
2023-01-03T18:26:14.649Z,-9.48
2023-01-03T18:28:41.193Z,-9.33
2023-01-03T18:31:17.534Z,-9.31
2023-01-03T18:33:44.610Z,-9.26
2023-01-03T18:36:22.105Z,-9.27
2023-01-03T18:38:48.665Z,-9.49
2023-01-03T18:41:18.145Z,-9.48
2023-01-03T18:43:44.651Z,-9.43
2023-01-03T18:46:14.115Z,-9.51
2023-01-03T18:48:42.524Z,-9.45
2023-01-03T18:51:13.077Z,-9.45
2023-01-03T18:53:41.350Z,-9.25
2023-01-03T18:56:19.137Z,-8.94
2023-01-03T18:58:45.765Z,-8.80
2023-01-03T19:01:12.360Z,-8.88
2023-01-03T19:03:40.092Z,-9.01
2023-01-03T19:06:13.730Z,-9.17
2023-01-03T19:08:40.268Z,-9.25
2023-01-03T19:11:08.745Z,-9.22
2023-01-03T19:13:50.507Z,-9.33
2023-01-03T19:16:18.231Z,-9.59
2023-01-03T19:18:45.025Z,-9.55
2023-01-03T19:21:15.400Z,-9.50
2023-01-03T19:23:42.587Z,-9.39
2023-01-03T19:26:25.324Z,-9.21
2023-01-03T19:28:56.404Z,-9.06
2023-01-03T19:31:26.554Z,-9.20
2023-01-03T19:33:53.442Z,-9.38
2023-01-03T19:36:20.813Z,-9.61
2023-01-03T19:38:47.430Z,-9.84
2023-01-03T19:41:15.485Z,-10.03
2023-01-03T19:43:43.737Z,-10.18
2023-01-03T19:46:14.831Z,-10.16
2023-01-03T19:48:41.442Z,-10.07
2023-01-03T19:51:09.127Z,-9.98
2023-01-03T19:53:35.871Z,-9.74
2023-01-03T19:56:02.894Z,-9.84
2023-01-03T19:58:31.368Z,-9.75
2023-01-03T20:00:58.814Z,-9.70
2023-01-03T20:03:44.127Z,-9.90
2023-01-03T20:06:15.624Z,-9.93
2023-01-03T20:08:42.153Z,-9.94
2023-01-03T20:11:15.010Z,-9.87
2023-01-03T20:13:41.584Z,-9.74
2023-01-03T20:16:10.230Z,-9.87
2023-01-03T20:18:37.013Z,-10.04
2023-01-03T20:21:10.320Z,-10.07
2023-01-03T20:23:39.699Z,-9.95
2023-01-03T20:26:06.708Z,-10.07
2023-01-03T20:28:33.256Z,-10.11
2023-01-03T20:31:00.965Z,-9.92
2023-01-03T20:33:28.881Z,-9.78
2023-01-03T20:36:22.111Z,-9.60
2023-01-03T20:38:46.702Z,-9.38
2023-01-03T20:41:14.577Z,-9.19
2023-01-03T20:43:41.643Z,-9.10
2023-01-03T20:46:26.566Z,-9.00
2023-01-03T20:48:57.210Z,-8.94
2023-01-03T20:51:26.485Z,-8.93
2023-01-03T20:53:55.553Z,-8.83
2023-01-03T20:56:22.490Z,-8.74
2023-01-03T20:58:49.052Z,-8.71
2023-01-03T21:01:15.645Z,-8.77
2023-01-03T21:03:42.278Z,-8.85
2023-01-03T21:06:19.226Z,-9.05
2023-01-03T21:08:54.968Z,-9.20
2023-01-03T21:11:25.502Z,-9.13
2023-01-03T21:13:52.220Z,-9.14
2023-01-03T21:16:22.515Z,-9.12
2023-01-03T21:18:49.173Z,-9.15
2023-01-03T21:21:18.816Z,-9.20
2023-01-03T21:23:45.347Z,-9.23
2023-01-03T21:26:12.027Z,-9.20
2023-01-03T21:28:38.530Z,-9.09
2023-01-03T21:31:06.029Z,-9.01
2023-01-03T21:33:33.275Z,-8.96
2023-01-03T21:35:59.798Z,-9.04
2023-01-03T21:38:26.317Z,-9.02
2023-01-03T21:40:53.339Z,-9.10
2023-01-03T21:43:19.789Z,-9.35
2023-01-03T21:45:47.542Z,-9.94
2023-01-03T21:48:15.248Z,-10.63
2023-01-03T21:50:45.527Z,-10.87
2023-01-03T21:53:18.453Z,-10.74
2023-01-03T21:55:45.708Z,-10.44
2023-01-03T21:58:13.656Z,-10.55
2023-01-03T22:00:40.457Z,-10.43
2023-01-03T22:03:25.444Z,-10.25
2023-01-03T22:05:52.062Z,-10.17
2023-01-03T22:08:18.536Z,-10.11
2023-01-03T22:10:48.083Z,-10.06
2023-01-03T22:13:14.612Z,-9.95
2023-01-03T22:15:41.199Z,-9.99
2023-01-03T22:18:09.152Z,-10.16
2023-01-03T22:20:38.830Z,-10.06
2023-01-03T22:23:06.819Z,-10.00
2023-01-03T22:25:33.420Z,-10.19
2023-01-03T22:28:02.345Z,-10.19
2023-01-03T22:30:28.885Z,-10.04
2023-01-03T22:32:59.155Z,-9.96
2023-01-03T22:35:25.751Z,-10.22
2023-01-03T22:37:52.202Z,-10.17
2023-01-03T22:40:18.787Z,-10.70
2023-01-03T22:42:46.143Z,-10.82
2023-01-03T22:45:15.423Z,-10.88
2023-01-03T22:47:42.420Z,-10.50
2023-01-03T22:50:09.418Z,-10.35
2023-01-03T22:52:39.283Z,-10.42
2023-01-03T22:55:08.297Z,-10.48
2023-01-03T22:57:36.924Z,-10.20
2023-01-03T23:00:04.899Z,-10.38
2023-01-03T23:02:37.242Z,-10.45
2023-01-03T23:05:07.917Z,-10.55
2023-01-03T23:07:34.523Z,-10.91
2023-01-03T23:10:01.136Z,-11.86
2023-01-03T23:12:46.474Z,-12.37
2023-01-03T23:15:13.029Z,-12.05
2023-01-03T23:17:57.564Z,-11.96
2023-01-03T23:20:27.017Z,-11.40
2023-01-03T23:22:59.358Z,-11.67
2023-01-03T23:25:26.593Z,-11.94
2023-01-03T23:27:53.100Z,-11.84
2023-01-03T23:30:19.745Z,-11.85
2023-01-03T23:32:46.986Z,-12.23
2023-01-03T23:35:13.524Z,-12.77
2023-01-03T23:37:40.328Z,-13.16
2023-01-03T23:40:07.287Z,-12.78
2023-01-03T23:42:33.815Z,-12.22
2023-01-03T23:45:01.272Z,-12.13
2023-01-03T23:47:27.703Z,-12.03
2023-01-03T23:49:54.271Z,-11.80
2023-01-03T23:52:20.840Z,-11.63
2023-01-03T23:54:47.468Z,-11.35
2023-01-03T23:57:13.941Z,-12.44
2023-01-03T23:59:41.138Z,-13.15
